createdAt,value
2018-05-02T00:00:35.050Z,0.00
2018-05-02T00:01:35.103Z,0.00
2018-05-02T00:02:35.158Z,0.00
2018-05-02T00:03:35.463Z,0.00
2018-05-02T00:04:35.275Z,0.00
2018-05-02T00:05:35.323Z,0.00
2018-05-02T00:06:35.376Z,0.00
2018-05-02T00:07:35.430Z,0.00
2018-05-02T00:08:35.637Z,0.00
2018-05-02T00:09:35.541Z,0.00
2018-05-02T00:10:35.596Z,0.00
2018-05-02T00:11:35.650Z,0.00
2018-05-02T00:12:35.705Z,0.00
2018-05-02T00:13:35.760Z,0.00
2018-05-02T00:14:35.813Z,0.00
2018-05-02T00:15:35.869Z,0.00
2018-05-02T00:16:35.925Z,0.00
2018-05-02T00:17:35.979Z,0.00
2018-05-02T00:18:36.033Z,0.00
2018-05-02T00:19:36.088Z,0.00
2018-05-02T00:20:36.141Z,0.00
2018-05-02T00:21:36.195Z,0.00
2018-05-02T00:22:36.259Z,0.00
2018-05-02T00:23:36.306Z,0.00
2018-05-02T00:24:36.617Z,0.00
2018-05-02T00:25:36.416Z,0.00
2018-05-02T00:26:36.468Z,0.00
2018-05-02T00:27:36.523Z,0.00
2018-05-02T00:28:36.591Z,0.00
2018-05-02T00:29:36.632Z,0.00
2018-05-02T00:30:36.685Z,0.00
2018-05-02T00:31:36.740Z,0.00
2018-05-02T00:32:36.795Z,0.00
2018-05-02T00:33:36.849Z,0.00
2018-05-02T00:34:36.902Z,0.00
2018-05-02T00:35:36.957Z,0.00
2018-05-02T00:36:37.013Z,0.00
2018-05-02T00:37:37.067Z,0.00
2018-05-02T00:38:37.121Z,0.00
2018-05-02T00:39:37.176Z,0.00
2018-05-02T00:40:37.234Z,0.00
2018-05-02T00:41:37.285Z,0.00
2018-05-02T00:42:38.101Z,0.00
2018-05-02T00:43:37.394Z,0.00
2018-05-02T00:44:37.446Z,0.00
2018-05-02T00:45:37.502Z,0.00
2018-05-02T00:46:37.555Z,0.00
2018-05-02T00:47:37.610Z,0.00
2018-05-02T00:48:37.665Z,0.00
2018-05-02T00:49:37.720Z,0.00
2018-05-02T00:50:37.773Z,0.00
2018-05-02T00:51:37.828Z,0.00
2018-05-02T00:52:37.882Z,0.00
2018-05-02T00:53:38.239Z,0.00
2018-05-02T00:54:37.989Z,0.00
2018-05-02T00:55:38.045Z,0.00
2018-05-02T00:56:38.099Z,0.00
2018-05-02T00:57:38.167Z,0.00
2018-05-02T00:58:38.208Z,0.00
2018-05-02T00:59:38.261Z,0.00
2018-05-02T01:00:38.315Z,0.00
2018-05-02T01:01:38.369Z,0.00
2018-05-02T01:02:38.425Z,0.00
2018-05-02T01:03:38.479Z,0.00
2018-05-02T01:04:38.537Z,0.00
2018-05-02T01:05:38.588Z,0.00
2018-05-02T01:06:38.641Z,0.00
2018-05-02T01:07:38.696Z,0.00
2018-05-02T01:08:38.750Z,0.00
2018-05-02T01:09:38.804Z,0.00
2018-05-02T01:10:38.860Z,0.00
2018-05-02T01:11:38.912Z,0.00
2018-05-02T01:12:38.967Z,0.00
2018-05-02T01:13:39.019Z,0.00
2018-05-02T01:14:39.074Z,0.00
2018-05-02T01:15:39.132Z,0.00
2018-05-02T01:16:39.185Z,0.00
2018-05-02T01:17:39.236Z,0.00
2018-05-02T01:18:39.289Z,0.00
2018-05-02T01:19:39.345Z,0.00
2018-05-02T01:20:39.399Z,0.00
2018-05-02T01:21:39.453Z,0.00
2018-05-02T01:22:39.505Z,0.00
2018-05-02T01:23:39.561Z,0.00
2018-05-02T01:24:39.615Z,0.00
2018-05-02T01:25:39.669Z,0.00
2018-05-02T01:26:39.723Z,0.00
2018-05-02T01:27:39.776Z,0.00
2018-05-02T01:28:39.832Z,0.00
2018-05-02T01:29:39.886Z,0.00
2018-05-02T01:30:39.939Z,0.00
2018-05-02T01:31:39.997Z,0.00
2018-05-02T01:32:40.048Z,0.00
2018-05-02T01:33:40.103Z,0.00
2018-05-02T01:34:40.157Z,0.00
2018-05-02T01:35:40.251Z,0.00
2018-05-02T01:36:40.263Z,0.00
2018-05-02T01:37:40.318Z,0.00
2018-05-02T01:38:40.371Z,0.00
2018-05-02T01:39:40.426Z,0.00
2018-05-02T01:40:40.481Z,0.00
2018-05-02T01:41:40.534Z,0.00
2018-05-02T01:42:40.589Z,0.00
2018-05-02T01:43:40.642Z,0.00
2018-05-02T01:44:40.696Z,0.00
2018-05-02T01:45:40.759Z,0.00
2018-05-02T01:46:40.802Z,0.00
2018-05-02T01:48:00.065Z,0.00
2018-05-02T01:48:40.913Z,0.00
2018-05-02T01:49:40.967Z,0.00
2018-05-02T01:50:41.021Z,0.00
2018-05-02T01:51:41.074Z,0.00
2018-05-02T01:52:41.129Z,0.00
2018-05-02T01:53:41.182Z,0.00
2018-05-02T01:54:41.236Z,0.00
2018-05-02T01:55:41.290Z,0.00
2018-05-02T01:56:41.344Z,0.00
2018-05-02T01:57:41.399Z,0.00
2018-05-02T01:58:41.451Z,0.00
2018-05-02T01:59:41.504Z,0.00
2018-05-02T02:00:41.559Z,0.00
2018-05-02T02:01:41.613Z,0.00
2018-05-02T02:02:41.666Z,0.00
2018-05-02T02:03:41.721Z,0.00
2018-05-02T02:04:41.774Z,0.00
2018-05-02T02:05:41.829Z,0.00
2018-05-02T02:06:41.882Z,0.00
2018-05-02T02:07:41.936Z,0.00
2018-05-02T02:08:41.992Z,0.00
2018-05-02T02:09:42.044Z,0.00
2018-05-02T02:10:42.098Z,0.00
2018-05-02T02:11:42.151Z,0.00
2018-05-02T02:12:42.209Z,0.00
2018-05-02T02:13:42.261Z,0.00
2018-05-02T02:14:42.312Z,0.00
2018-05-02T02:15:42.365Z,0.00
2018-05-02T02:16:42.419Z,0.00
2018-05-02T02:17:42.473Z,0.00
2018-05-02T02:18:42.528Z,0.00
2018-05-02T02:19:42.834Z,0.00
2018-05-02T02:20:42.635Z,0.00
2018-05-02T02:21:42.689Z,0.00
2018-05-02T02:22:42.742Z,0.00
2018-05-02T02:23:42.796Z,0.00
2018-05-02T02:24:42.852Z,0.00
2018-05-02T02:25:42.908Z,0.00
2018-05-02T02:26:42.957Z,0.00
2018-05-02T02:27:43.013Z,0.00
2018-05-02T02:28:43.067Z,0.00
2018-05-02T02:29:43.119Z,0.00
2018-05-02T02:30:43.173Z,0.00
2018-05-02T02:31:43.226Z,0.00
2018-05-02T02:32:43.280Z,0.00
2018-05-02T02:33:43.333Z,0.00
2018-05-02T02:34:43.391Z,0.00
2018-05-02T02:35:43.442Z,0.00
2018-05-02T02:36:43.495Z,0.00
2018-05-02T02:37:43.556Z,0.00
2018-05-02T02:38:43.606Z,0.00
2018-05-02T02:39:43.655Z,0.00
2018-05-02T02:40:43.711Z,0.00
2018-05-02T02:41:43.762Z,0.00
2018-05-02T02:42:43.816Z,0.00
2018-05-02T02:43:43.872Z,0.00
2018-05-02T02:44:43.927Z,0.00
2018-05-02T02:45:43.978Z,0.00
2018-05-02T02:46:44.031Z,0.00
2018-05-02T02:47:44.094Z,0.00
2018-05-02T02:48:44.137Z,0.00
2018-05-02T02:49:44.192Z,0.00
2018-05-02T02:50:44.245Z,0.00
2018-05-02T02:51:44.297Z,0.00
2018-05-02T02:52:44.353Z,0.00
2018-05-02T02:53:44.409Z,0.00
2018-05-02T02:54:44.461Z,0.00
2018-05-02T02:55:44.516Z,0.00
2018-05-02T02:56:44.567Z,0.00
2018-05-02T02:57:44.622Z,0.00
2018-05-02T02:58:44.674Z,0.00
2018-05-02T02:59:44.727Z,0.00
2018-05-02T03:00:44.781Z,0.00
2018-05-02T03:01:44.836Z,0.00
2018-05-02T03:02:44.888Z,0.00
2018-05-02T03:03:44.942Z,0.00
2018-05-02T03:04:44.997Z,0.00
2018-05-02T03:05:45.050Z,0.00
2018-05-02T03:06:45.105Z,0.00
2018-05-02T03:07:45.156Z,0.00
2018-05-02T03:08:45.209Z,0.00
2018-05-02T03:09:45.264Z,0.00
2018-05-02T03:10:45.316Z,0.00
2018-05-02T03:11:45.374Z,0.00
2018-05-02T03:12:45.432Z,0.00
2018-05-02T03:13:45.479Z,0.00
2018-05-02T03:14:45.532Z,0.00
2018-05-02T03:15:45.584Z,0.00
2018-05-02T03:16:45.646Z,0.00
2018-05-02T03:17:45.693Z,0.00
2018-05-02T03:18:45.745Z,0.00
2018-05-02T03:19:45.799Z,0.00
2018-05-02T03:20:45.854Z,0.00
2018-05-02T03:21:45.907Z,0.00
2018-05-02T03:22:45.959Z,0.00
2018-05-02T03:23:46.013Z,0.00
2018-05-02T03:24:46.067Z,0.00
2018-05-02T03:25:46.122Z,0.00
2018-05-02T03:26:46.174Z,0.00
2018-05-02T03:27:46.227Z,0.00
2018-05-02T03:28:46.285Z,0.00
2018-05-02T03:29:46.334Z,0.00
2018-05-02T03:30:46.388Z,0.00
2018-05-02T03:31:46.442Z,0.00
2018-05-02T03:32:46.496Z,0.00
2018-05-02T03:33:46.549Z,0.00
2018-05-02T03:34:46.602Z,0.00
2018-05-02T03:35:46.656Z,0.00
2018-05-02T03:36:46.708Z,0.00
2018-05-02T03:37:46.762Z,0.00
2018-05-02T03:38:46.816Z,0.00
2018-05-02T03:39:46.869Z,0.00
2018-05-02T03:40:46.930Z,0.00
2018-05-02T03:41:46.977Z,0.00
2018-05-02T03:42:47.029Z,0.00
2018-05-02T03:43:47.084Z,0.00
2018-05-02T03:44:47.137Z,0.00
2018-05-02T03:45:47.190Z,0.00
2018-05-02T03:46:47.243Z,0.00
2018-05-02T03:47:47.297Z,0.00
2018-05-02T03:48:47.350Z,0.00
2018-05-02T03:49:47.403Z,0.00
2018-05-02T03:50:47.456Z,0.00
2018-05-02T03:51:47.509Z,0.00
2018-05-02T03:52:47.564Z,0.00
2018-05-02T03:53:47.617Z,0.00
2018-05-02T03:54:47.668Z,0.00
2018-05-02T03:55:47.723Z,0.00
2018-05-02T03:56:47.780Z,0.00
2018-05-02T03:57:47.831Z,0.00
2018-05-02T03:58:47.887Z,5.63
2018-05-02T03:59:47.937Z,5.63
2018-05-02T04:00:48.057Z,5.63
2018-05-02T04:01:48.044Z,5.63
2018-05-02T04:02:48.096Z,5.63
2018-05-02T04:03:48.150Z,5.63
2018-05-02T04:04:48.203Z,5.63
2018-05-02T04:05:48.257Z,11.25
2018-05-02T04:06:48.382Z,11.25
2018-05-02T04:07:48.362Z,11.25
2018-05-02T04:08:48.415Z,11.25
2018-05-02T04:09:48.469Z,11.25
2018-05-02T04:10:48.522Z,11.25
2018-05-02T04:11:48.578Z,16.88
2018-05-02T04:12:48.630Z,16.88
2018-05-02T04:13:48.681Z,16.88
2018-05-02T04:14:48.736Z,16.88
2018-05-02T04:15:48.792Z,22.50
2018-05-02T04:16:48.842Z,22.50
2018-05-02T04:17:48.896Z,22.50
2018-05-02T04:18:48.966Z,22.50
2018-05-02T04:19:49.002Z,28.13
2018-05-02T04:20:49.057Z,28.13
2018-05-02T04:21:49.113Z,28.13
2018-05-02T04:22:49.162Z,33.75
2018-05-02T04:23:49.215Z,33.75
2018-05-02T04:24:49.269Z,33.75
2018-05-02T04:25:49.322Z,39.38
2018-05-02T04:26:49.375Z,39.38
2018-05-02T04:27:49.428Z,39.38
2018-05-02T04:28:49.494Z,45.00
2018-05-02T04:29:49.576Z,45.00
2018-05-02T04:30:49.619Z,45.00
2018-05-02T04:31:49.696Z,50.63
2018-05-02T04:32:49.695Z,50.63
2018-05-02T04:33:49.749Z,50.63
2018-05-02T04:34:49.800Z,56.25
2018-05-02T04:35:49.856Z,56.25
2018-05-02T04:36:49.908Z,56.25
2018-05-02T04:37:49.961Z,61.88
2018-05-02T04:38:50.013Z,61.88
2018-05-02T04:39:50.477Z,67.50
2018-05-02T04:40:50.589Z,67.50
2018-05-02T04:41:50.590Z,73.13
2018-05-02T04:42:50.230Z,73.13
2018-05-02T04:43:50.335Z,73.13
2018-05-02T04:44:50.709Z,73.13
2018-05-02T04:45:50.754Z,78.75
2018-05-02T04:46:50.441Z,78.75
2018-05-02T04:47:50.836Z,78.75
2018-05-02T04:48:50.569Z,78.75
2018-05-02T04:49:50.639Z,78.75
2018-05-02T04:50:51.031Z,78.75
2018-05-02T04:51:50.793Z,78.75
2018-05-02T04:52:50.810Z,78.75
2018-05-02T04:53:51.194Z,78.75
2018-05-02T04:54:50.885Z,84.38
2018-05-02T04:55:50.957Z,84.38
2018-05-02T04:56:50.985Z,84.38
2018-05-02T04:57:51.041Z,84.38
2018-05-02T04:58:51.136Z,84.38
2018-05-02T04:59:51.162Z,90.00
2018-05-02T05:00:51.207Z,90.00
2018-05-02T05:01:51.287Z,90.00
2018-05-02T05:02:51.392Z,90.00
2018-05-02T05:03:51.355Z,95.63
2018-05-02T05:04:51.406Z,95.63
2018-05-02T05:05:51.487Z,95.63
2018-05-02T05:06:51.556Z,95.63
2018-05-02T05:07:51.561Z,95.63
2018-05-02T05:08:51.642Z,101.25
2018-05-02T05:09:51.703Z,101.25
2018-05-02T05:10:51.719Z,101.25
2018-05-02T05:11:51.802Z,106.88
2018-05-02T05:12:51.827Z,106.88
2018-05-02T05:13:51.880Z,112.50
2018-05-02T05:14:51.932Z,112.50
2018-05-02T05:15:51.985Z,112.50
2018-05-02T05:16:52.048Z,112.50
2018-05-02T05:17:52.094Z,118.13
2018-05-02T05:18:52.154Z,118.13
2018-05-02T05:19:52.200Z,123.75
2018-05-02T05:20:52.358Z,123.75
2018-05-02T05:21:52.307Z,123.75
2018-05-02T05:22:52.381Z,123.75
2018-05-02T05:23:52.414Z,123.75
2018-05-02T05:24:52.467Z,123.75
2018-05-02T05:25:52.528Z,129.38
2018-05-02T05:26:52.576Z,135.00
2018-05-02T05:27:52.630Z,129.38
2018-05-02T05:28:52.683Z,129.38
2018-05-02T05:29:52.736Z,135.00
2018-05-02T05:30:52.787Z,140.63
2018-05-02T05:31:52.842Z,135.00
2018-05-02T05:32:52.932Z,140.63
2018-05-02T05:33:52.951Z,146.25
2018-05-02T05:34:53.003Z,140.63
2018-05-02T05:35:53.089Z,146.25
2018-05-02T05:36:53.113Z,140.63
2018-05-02T05:37:53.166Z,146.25
2018-05-02T05:38:53.219Z,146.25
2018-05-02T05:39:53.315Z,140.63
2018-05-02T05:40:53.327Z,151.88
2018-05-02T05:41:53.381Z,151.88
2018-05-02T05:42:53.800Z,151.88
2018-05-02T05:43:53.488Z,151.88
2018-05-02T05:44:53.544Z,157.50
2018-05-02T05:45:53.907Z,163.13
2018-05-02T05:46:53.650Z,157.50
2018-05-02T05:47:53.956Z,157.50
2018-05-02T05:48:53.759Z,157.50
2018-05-02T05:49:53.813Z,157.50
2018-05-02T05:50:53.871Z,151.88
2018-05-02T05:51:53.929Z,157.50
2018-05-02T05:52:53.984Z,146.25
2018-05-02T05:53:54.063Z,151.88
2018-05-02T05:54:54.083Z,168.75
2018-05-02T05:55:54.139Z,168.75
2018-05-02T05:56:54.193Z,163.13
2018-05-02T05:57:54.246Z,174.38
2018-05-02T05:58:54.303Z,174.38
2018-05-02T05:59:54.354Z,174.38
2018-05-02T06:00:54.484Z,174.38
2018-05-02T06:01:54.472Z,163.13
2018-05-02T06:02:54.517Z,163.13
2018-05-02T06:03:54.599Z,174.38
2018-05-02T06:04:54.627Z,185.63
2018-05-02T06:05:54.688Z,168.75
2018-05-02T06:06:54.736Z,168.75
2018-05-02T06:07:54.790Z,163.13
2018-05-02T06:08:54.846Z,163.13
2018-05-02T06:09:54.932Z,163.13
2018-05-02T06:10:54.955Z,180.00
2018-05-02T06:11:55.027Z,180.00
2018-05-02T06:12:55.072Z,185.63
2018-05-02T06:13:55.119Z,202.50
2018-05-02T06:14:55.669Z,213.75
2018-05-02T06:15:55.229Z,225.00
2018-05-02T06:16:55.301Z,236.25
2018-05-02T06:17:55.339Z,241.88
2018-05-02T06:18:55.392Z,241.88
2018-05-02T06:19:55.447Z,253.13
2018-05-02T06:20:55.504Z,270.00
2018-05-02T06:21:59.470Z,281.25
2018-05-02T06:22:56.104Z,286.88
2018-05-02T06:23:56.383Z,281.25
2018-05-02T06:24:56.405Z,286.88
2018-05-02T06:25:56.632Z,298.13
2018-05-02T06:26:56.362Z,320.63
2018-05-02T06:27:56.463Z,331.88
2018-05-02T06:28:55.944Z,331.88
2018-05-02T06:29:55.999Z,343.13
2018-05-02T06:30:56.053Z,343.13
2018-05-02T06:31:56.161Z,360.00
2018-05-02T06:32:56.166Z,360.00
2018-05-02T06:33:56.243Z,348.75
2018-05-02T06:34:56.276Z,343.13
2018-05-02T06:35:56.340Z,365.63
2018-05-02T06:36:56.389Z,388.13
2018-05-02T06:37:56.508Z,416.25
2018-05-02T06:38:56.500Z,455.63
2018-05-02T06:39:56.902Z,450.00
2018-05-02T06:40:56.612Z,450.00
2018-05-02T06:41:56.668Z,461.25
2018-05-02T06:42:56.743Z,438.75
2018-05-02T06:43:56.781Z,444.38
2018-05-02T06:44:56.837Z,433.13
2018-05-02T06:45:56.893Z,399.38
2018-05-02T06:46:56.948Z,399.38
2018-05-02T06:47:57.006Z,405.00
2018-05-02T06:48:57.084Z,416.25
2018-05-02T06:49:57.662Z,399.38
2018-05-02T06:50:57.173Z,399.38
2018-05-02T06:51:57.230Z,393.75
2018-05-02T06:52:57.324Z,393.75
2018-05-02T06:53:57.343Z,382.50
2018-05-02T06:54:57.400Z,371.25
2018-05-02T06:55:57.457Z,371.25
2018-05-02T06:56:57.530Z,371.25
2018-05-02T06:57:57.596Z,382.50
2018-05-02T06:58:57.632Z,382.50
2018-05-02T06:59:57.909Z,388.13
2018-05-02T07:00:57.844Z,382.50
2018-05-02T07:01:58.068Z,405.00
2018-05-02T07:02:57.875Z,399.38
2018-05-02T07:03:57.926Z,416.25
2018-05-02T07:04:57.981Z,433.13
2018-05-02T07:05:58.094Z,455.63
2018-05-02T07:06:58.410Z,466.88
2018-05-02T07:07:58.170Z,500.63
2018-05-02T07:08:58.279Z,517.50
2018-05-02T07:09:58.280Z,528.75
2018-05-02T07:10:58.362Z,523.13
2018-05-02T07:11:58.694Z,540.00
2018-05-02T07:12:58.456Z,523.13
2018-05-02T07:13:58.508Z,506.25
2018-05-02T07:14:58.569Z,511.88
2018-05-02T07:15:58.610Z,500.63
2018-05-02T07:16:58.665Z,478.13
2018-05-02T07:17:59.037Z,466.88
2018-05-02T07:18:59.101Z,489.38
2018-05-02T07:19:59.206Z,450.00
2018-05-02T07:20:58.926Z,455.63
2018-05-02T07:21:58.971Z,427.50
2018-05-02T07:22:59.004Z,416.25
2018-05-02T07:23:59.127Z,416.25
2018-05-02T07:24:59.129Z,421.88
2018-05-02T07:25:59.188Z,410.63
2018-05-02T07:26:59.250Z,382.50
2018-05-02T07:27:59.732Z,405.00
2018-05-02T07:28:59.416Z,410.63
2018-05-02T07:29:59.414Z,433.13
2018-05-02T07:30:59.469Z,410.63
2018-05-02T07:31:59.526Z,410.63
2018-05-02T07:33:00.071Z,399.38
2018-05-02T07:34:00.052Z,393.75
2018-05-02T07:34:59.701Z,399.38
2018-05-02T07:36:00.155Z,382.50
2018-05-02T07:36:59.823Z,371.25
2018-05-02T07:38:00.195Z,371.25
2018-05-02T07:38:59.938Z,365.63
2018-05-02T07:40:00.025Z,382.50
2018-05-02T07:41:00.171Z,376.88
2018-05-02T07:42:00.109Z,354.38
2018-05-02T07:43:00.180Z,337.50
2018-05-02T07:44:00.234Z,331.88
2018-05-02T07:45:00.284Z,320.63
2018-05-02T07:46:00.342Z,320.63
2018-05-02T07:47:00.404Z,309.38
2018-05-02T07:48:00.457Z,315.00
2018-05-02T07:49:00.519Z,331.88
2018-05-02T07:50:00.573Z,309.38
2018-05-02T07:51:00.630Z,326.25
2018-05-02T07:52:00.688Z,348.75
2018-05-02T07:53:00.765Z,348.75
2018-05-02T07:54:00.807Z,337.50
2018-05-02T07:55:00.863Z,360.00
2018-05-02T07:56:00.923Z,365.63
2018-05-02T07:57:00.984Z,365.63
2018-05-02T07:58:01.054Z,376.88
2018-05-02T07:59:01.101Z,388.13
2018-05-02T08:00:01.605Z,376.88
2018-05-02T08:01:01.213Z,405.00
2018-05-02T08:02:01.271Z,393.75
2018-05-02T08:03:01.331Z,399.38
2018-05-02T08:04:01.387Z,405.00
2018-05-02T08:05:01.447Z,405.00
2018-05-02T08:06:01.505Z,405.00
2018-05-02T08:07:01.576Z,399.38
2018-05-02T08:08:01.618Z,399.38
2018-05-02T08:09:01.683Z,405.00
2018-05-02T08:10:01.737Z,405.00
2018-05-02T08:11:01.868Z,405.00
2018-05-02T08:12:01.854Z,393.75
2018-05-02T08:13:01.915Z,405.00
2018-05-02T08:14:01.971Z,416.25
2018-05-02T08:15:02.032Z,410.63
2018-05-02T08:16:02.431Z,416.25
2018-05-02T08:17:02.150Z,393.75
2018-05-02T08:18:02.206Z,399.38
2018-05-02T08:19:02.263Z,376.88
2018-05-02T08:20:02.322Z,371.25
2018-05-02T08:21:02.382Z,382.50
2018-05-02T08:22:02.461Z,410.63
2018-05-02T08:23:02.501Z,410.63
2018-05-02T08:24:02.629Z,433.13
2018-05-02T08:25:02.618Z,444.38
2018-05-02T08:26:02.674Z,472.50
2018-05-02T08:27:02.748Z,466.88
2018-05-02T08:28:02.794Z,478.13
2018-05-02T08:29:02.852Z,483.75
2018-05-02T08:30:02.912Z,478.13
2018-05-02T08:31:02.971Z,489.38
2018-05-02T08:32:03.029Z,495.00
2018-05-02T08:33:03.089Z,506.25
2018-05-02T08:34:03.147Z,472.50
2018-05-02T08:35:03.216Z,478.13
2018-05-02T08:36:03.265Z,483.75
2018-05-02T08:37:03.326Z,489.38
2018-05-02T08:38:03.385Z,511.88
2018-05-02T08:39:03.443Z,511.88
2018-05-02T08:40:03.503Z,511.88
2018-05-02T08:41:03.563Z,523.13
2018-05-02T08:42:03.623Z,556.88
2018-05-02T08:43:03.681Z,573.75
2018-05-02T08:44:03.743Z,551.25
2018-05-02T08:45:03.800Z,540.00
2018-05-02T08:46:03.860Z,551.25
2018-05-02T08:47:03.920Z,562.50
2018-05-02T08:48:03.980Z,579.38
2018-05-02T08:49:04.040Z,596.25
2018-05-02T08:50:04.100Z,596.25
2018-05-02T08:51:04.160Z,568.13
2018-05-02T08:52:04.248Z,551.25
2018-05-02T08:53:04.280Z,551.25
2018-05-02T08:54:04.360Z,556.88
2018-05-02T08:55:04.399Z,579.38
2018-05-02T08:56:04.459Z,579.38
2018-05-02T08:57:04.527Z,585.00
2018-05-02T08:58:05.190Z,573.75
2018-05-02T08:59:04.661Z,568.13
2018-05-02T09:00:04.701Z,573.75
2018-05-02T09:01:04.762Z,590.63
2018-05-02T09:02:05.378Z,630.00
2018-05-02T09:03:04.883Z,663.75
2018-05-02T09:04:04.943Z,680.63
2018-05-02T09:05:05.008Z,686.25
2018-05-02T09:06:05.065Z,663.75
2018-05-02T09:07:05.125Z,646.88
2018-05-02T09:08:05.191Z,646.88
2018-05-02T09:09:05.246Z,663.75
2018-05-02T09:10:05.308Z,658.13
2018-05-02T09:11:05.368Z,646.88
2018-05-02T09:12:05.428Z,658.13
2018-05-02T09:13:05.496Z,658.13
2018-05-02T09:14:05.551Z,691.88
2018-05-02T09:15:05.612Z,725.63
2018-05-02T09:16:05.697Z,736.88
2018-05-02T09:17:05.735Z,748.13
2018-05-02T09:18:05.796Z,714.38
2018-05-02T09:19:05.857Z,714.38
2018-05-02T09:20:05.918Z,714.38
2018-05-02T09:21:05.984Z,714.38
2018-05-02T09:22:06.044Z,725.63
2018-05-02T09:23:06.255Z,736.88
2018-05-02T09:24:06.243Z,742.50
2018-05-02T09:25:06.226Z,748.13
2018-05-02T09:26:06.299Z,770.63
2018-05-02T09:27:06.349Z,787.50
2018-05-02T09:28:06.429Z,810.00
2018-05-02T09:29:06.522Z,826.88
2018-05-02T09:30:06.549Z,832.50
2018-05-02T09:31:06.915Z,832.50
2018-05-02T09:32:06.665Z,826.88
2018-05-02T09:33:06.721Z,826.88
2018-05-02T09:34:06.784Z,815.63
2018-05-02T09:35:06.846Z,798.75
2018-05-02T09:36:06.909Z,798.75
2018-05-02T09:37:06.972Z,793.13
2018-05-02T09:38:07.036Z,765.00
2018-05-02T09:39:07.105Z,770.63
2018-05-02T09:40:07.157Z,776.25
2018-05-02T09:41:07.221Z,776.25
2018-05-02T09:42:07.632Z,793.13
2018-05-02T09:43:07.344Z,798.75
2018-05-02T09:44:07.442Z,815.63
2018-05-02T09:45:07.470Z,815.63
2018-05-02T09:46:07.652Z,843.75
2018-05-02T09:47:07.596Z,849.38
2018-05-02T09:48:07.657Z,860.63
2018-05-02T09:49:07.750Z,849.38
2018-05-02T09:50:07.826Z,843.75
2018-05-02T09:51:07.870Z,849.38
2018-05-02T09:52:07.997Z,838.13
2018-05-02T09:53:08.012Z,838.13
2018-05-02T09:54:08.390Z,855.00
2018-05-02T09:55:08.430Z,860.63
2018-05-02T09:56:08.203Z,866.25
2018-05-02T09:57:08.309Z,871.88
2018-05-02T09:58:08.431Z,866.25
2018-05-02T09:59:08.377Z,855.00
2018-05-02T10:00:08.446Z,838.13
2018-05-02T10:01:08.486Z,843.75
2018-05-02T10:02:08.590Z,838.13
2018-05-02T10:03:08.614Z,843.75
2018-05-02T10:04:08.699Z,843.75
2018-05-02T10:05:08.844Z,843.75
2018-05-02T10:06:08.834Z,866.25
2018-05-02T10:07:08.885Z,894.38
2018-05-02T10:08:08.976Z,905.63
2018-05-02T10:09:09.015Z,922.50
2018-05-02T10:10:09.430Z,978.75
2018-05-02T10:11:09.139Z,1001.25
2018-05-02T10:12:09.214Z,1057.50
2018-05-02T10:13:09.334Z,1063.13
2018-05-02T10:14:09.323Z,1040.63
2018-05-02T10:15:09.394Z,1057.50
2018-05-02T10:16:09.436Z,1074.38
2018-05-02T10:17:09.501Z,1153.13
2018-05-02T10:18:09.568Z,1288.13
2018-05-02T10:19:09.629Z,1535.63
2018-05-02T10:20:09.714Z,1710.00
2018-05-02T10:21:09.758Z,1935.00
2018-05-02T10:22:09.825Z,1946.25
2018-05-02T10:23:09.888Z,1636.88
2018-05-02T10:24:09.953Z,1749.38
2018-05-02T10:25:10.022Z,1395.00
2018-05-02T10:26:10.096Z,1389.38
2018-05-02T10:27:10.154Z,1507.50
2018-05-02T10:28:10.216Z,1507.50
2018-05-02T10:29:10.281Z,1406.25
2018-05-02T10:30:10.349Z,1507.50
2018-05-02T10:31:10.413Z,1451.25
2018-05-02T10:32:10.481Z,1411.88
2018-05-02T10:33:10.546Z,1496.25
2018-05-02T10:34:10.614Z,1603.13
2018-05-02T10:35:11.088Z,1541.25
2018-05-02T10:36:11.073Z,1411.88
2018-05-02T10:37:11.644Z,1507.50
2018-05-02T10:38:10.894Z,1546.88
2018-05-02T10:39:11.368Z,1760.63
2018-05-02T10:40:11.016Z,1721.25
2018-05-02T10:41:11.082Z,1693.13
2018-05-02T10:42:11.153Z,1698.75
2018-05-02T10:43:11.257Z,1856.25
2018-05-02T10:44:11.284Z,1816.88
2018-05-02T10:45:11.352Z,1788.75
2018-05-02T10:46:11.419Z,1856.25
2018-05-02T10:47:11.486Z,1788.75
2018-05-02T10:48:11.555Z,1996.88
2018-05-02T10:49:11.622Z,1732.50
2018-05-02T10:50:11.696Z,1946.25
2018-05-02T10:51:11.760Z,1935.00
2018-05-02T10:52:11.831Z,1811.25
2018-05-02T10:53:11.896Z,1884.38
2018-05-02T10:54:11.966Z,1771.88
2018-05-02T10:55:12.035Z,1901.25
2018-05-02T10:56:12.104Z,2098.13
2018-05-02T10:57:12.171Z,2008.13
2018-05-02T10:58:12.243Z,1923.75
2018-05-02T10:59:12.310Z,1698.75
2018-05-02T11:00:12.381Z,1755.00
2018-05-02T11:01:12.452Z,1805.63
2018-05-02T11:02:12.520Z,1861.88
2018-05-02T11:03:12.589Z,1845.00
2018-05-02T11:04:12.658Z,1828.13
2018-05-02T11:05:12.731Z,1755.00
2018-05-02T11:06:12.797Z,1676.25
2018-05-02T11:07:12.869Z,1878.75
2018-05-02T11:08:12.936Z,1878.75
2018-05-02T11:09:13.005Z,1800.00
2018-05-02T11:10:13.074Z,1715.63
2018-05-02T11:11:13.144Z,1569.38
2018-05-02T11:12:13.214Z,1698.75
2018-05-02T11:13:13.957Z,2030.63
2018-05-02T11:14:13.353Z,2098.13
2018-05-02T11:15:13.421Z,2401.88
2018-05-02T11:16:13.489Z,2109.38
2018-05-02T11:17:13.560Z,1783.13
2018-05-02T11:18:13.630Z,1940.63
2018-05-02T11:19:13.697Z,1783.13
2018-05-02T11:20:13.769Z,1766.25
2018-05-02T11:21:13.836Z,1710.00
2018-05-02T11:22:13.908Z,1783.13
2018-05-02T11:23:14.004Z,1726.88
2018-05-02T11:24:14.043Z,1738.13
2018-05-02T11:25:14.112Z,1755.00
2018-05-02T11:26:14.553Z,1873.13
2018-05-02T11:27:14.251Z,2103.75
2018-05-02T11:28:14.319Z,2109.38
2018-05-02T11:29:14.394Z,1704.38
2018-05-02T11:30:14.470Z,1890.00
2018-05-02T11:31:15.148Z,2165.63
2018-05-02T11:32:14.593Z,2250.00
2018-05-02T11:33:14.661Z,2418.75
2018-05-02T11:34:14.730Z,3341.25
2018-05-02T11:35:14.798Z,2340.00
2018-05-02T11:36:14.868Z,3622.50
2018-05-02T11:37:14.939Z,1940.63
2018-05-02T11:38:15.008Z,1636.88
2018-05-02T11:39:15.074Z,1845.00
2018-05-02T11:40:15.148Z,1833.75
2018-05-02T11:41:15.214Z,1929.38
2018-05-02T11:42:15.283Z,1850.63
2018-05-02T11:43:15.352Z,2396.25
2018-05-02T11:44:15.421Z,2289.38
2018-05-02T11:45:15.491Z,2176.88
2018-05-02T11:46:15.642Z,1732.50
2018-05-02T11:47:15.628Z,1732.50
2018-05-02T11:48:15.701Z,1603.13
2018-05-02T11:49:15.767Z,1648.13
2018-05-02T11:50:15.837Z,1653.75
2018-05-02T11:51:15.909Z,1738.13
2018-05-02T11:52:15.974Z,1957.50
2018-05-02T11:53:16.043Z,2131.88
2018-05-02T11:54:16.113Z,1895.63
2018-05-02T11:55:16.181Z,2126.25
2018-05-02T11:56:16.249Z,2278.13
2018-05-02T11:57:16.419Z,1968.75
2018-05-02T11:58:16.739Z,1991.25
2018-05-02T11:59:16.494Z,1816.88
2018-05-02T12:00:16.524Z,1721.25
2018-05-02T12:01:16.595Z,1726.88
2018-05-02T12:02:16.663Z,1760.63
2018-05-02T12:03:16.731Z,1794.38
2018-05-02T12:04:16.802Z,1951.88
2018-05-02T12:05:16.868Z,2013.75
2018-05-02T12:06:16.939Z,2171.25
2018-05-02T12:07:17.006Z,2193.75
2018-05-02T12:08:17.076Z,2272.50
2018-05-02T12:09:17.146Z,2458.13
2018-05-02T12:10:17.215Z,2295.00
2018-05-02T12:11:17.282Z,2615.63
2018-05-02T12:12:17.351Z,2919.38
2018-05-02T12:13:17.423Z,2716.88
2018-05-02T12:14:17.806Z,2160.00
2018-05-02T12:15:17.559Z,2981.25
2018-05-02T12:16:17.634Z,1856.25
2018-05-02T12:17:17.700Z,1732.50
2018-05-02T12:18:17.861Z,1867.50
2018-05-02T12:19:17.838Z,1665.00
2018-05-02T12:20:17.907Z,1704.38
2018-05-02T12:21:17.977Z,1726.88
2018-05-02T12:22:18.047Z,1738.13
2018-05-02T12:23:18.115Z,1743.75
2018-05-02T12:24:18.186Z,1828.13
2018-05-02T12:25:18.255Z,1755.00
2018-05-02T12:26:18.327Z,1867.50
2018-05-02T12:27:18.402Z,2098.13
2018-05-02T12:28:18.466Z,1974.38
2018-05-02T12:29:18.532Z,1811.25
2018-05-02T12:30:18.603Z,2098.13
2018-05-02T12:31:18.671Z,1805.63
2018-05-02T12:32:18.740Z,1890.00
2018-05-02T12:33:18.810Z,1749.38
2018-05-02T12:34:18.881Z,1788.75
2018-05-02T12:35:19.005Z,1856.25
2018-05-02T12:36:19.018Z,1878.75
2018-05-02T12:37:19.643Z,1963.13
2018-05-02T12:38:19.157Z,1777.50
2018-05-02T12:39:19.225Z,1715.63
2018-05-02T12:40:19.295Z,1614.38
2018-05-02T12:41:19.396Z,1738.13
2018-05-02T12:42:19.434Z,1743.75